Time;durP1;ratioP1;P1;durP2;ratioP2;P2;SDS_P1;SDS_P2;PMS_P1;PMS_P2;Temp;Humidity;BMP_temperature;BMP_pressure;BME280_temperature;BME280_humidity;BME280_pressure;Samples;Min_cycle;Max_cycle;Signal;HPM_P1;HPM_P2
2022/02/26 00:00:13;;;;;;;60.43;28.07;;;;;;;0.39;100.00;100338.03;1794546;79;21049;-68
2022/02/26 00:02:40;;;;;;;52.20;24.90;;;;;;;0.52;100.00;100337.71;1722316;83;21070;-68
2022/02/26 00:05:09;;;;;;;55.17;27.50;;;;;;;0.65;100.00;100343.86;1795084;79;21042;-67
2022/02/26 00:07:36;;;;;;;48.17;23.95;;;;;;;0.77;100.00;100337.02;1722396;83;21050;-67
2022/02/26 00:10:04;;;;;;;51.40;23.35;;;;;;;0.91;100.00;100339.69;1794367;79;21124;-68
2022/02/26 00:12:33;;;;;;;54.35;25.80;;;;;;;1.02;100.00;100344.94;1794581;79;21042;-68
2022/02/26 00:15:01;;;;;;;48.05;22.85;;;;;;;1.13;100.00;100339.78;1723578;83;21042;-67
2022/02/26 00:17:28;;;;;;;51.98;24.15;;;;;;;1.24;100.00;100346.79;1794597;80;21542;-68
2022/02/26 00:19:56;;;;;;;44.60;23.02;;;;;;;1.35;100.00;100345.95;1723770;82;21654;-67
2022/02/26 00:22:23;;;;;;;49.85;23.18;;;;;;;1.43;100.00;100359.40;1723648;82;21151;-67
2022/02/26 00:24:50;;;;;;;44.88;22.17;;;;;;;1.54;100.00;100357.26;1723898;83;21035;-69
2022/02/26 00:27:16;;;;;;;42.62;20.62;;;;;;;1.62;100.00;100360.77;1794399;80;21090;-67
2022/02/26 00:29:43;;;;;;;46.55;21.45;;;;;;;1.68;100.00;100359.05;1794223;80;21113;-68
2022/02/26 00:32:09;;;;;;;40.73;20.40;;;;;;;1.75;100.00;100365.13;1794291;80;21069;-67
2022/02/26 00:34:37;;;;;;;43.05;20.43;;;;;;;1.80;100.00;100368.60;1794069;80;21010;-68
2022/02/26 00:37:04;;;;;;;46.18;21.97;;;;;;;1.84;100.00;100370.34;1793922;79;21046;-68
2022/02/26 00:39:32;;;;;;;41.00;19.82;;;;;;;1.88;100.00;100361.67;1794204;80;21077;-68
2022/02/26 00:41:58;;;;;;;38.78;19.98;;;;;;;1.93;100.00;100366.02;1794354;80;21059;-68
2022/02/26 00:44:25;;;;;;;45.08;20.62;;;;;;;1.95;100.00;100376.84;1794413;80;21070;-67
2022/02/26 00:46:52;;;;;;;43.85;19.70;;;;;;;1.98;100.00;100379.87;1794394;80;21142;-68
2022/02/26 00:52:06;;;;;;;37.65;18.27;;;;;;;2.02;100.00;100384.22;1794663;79;21085;-67
2022/02/26 00:54:33;;;;;;;37.50;18.12;;;;;;;2.06;100.00;100388.56;1782500;80;21038;-68
2022/02/26 00:56:59;;;;;;;40.98;18.77;;;;;;;2.07;100.00;100386.39;1773056;80;21029;-68
2022/02/26 00:59:26;;;;;;;36.75;17.52;;;;;;;2.07;100.00;100386.39;1750973;80;21500;-66
2022/02/26 01:01:52;;;;;;;37.80;17.23;;;;;;;2.09;100.00;100394.65;1773094;80;21072;-67
2022/02/26 01:04:19;;;;;;;29.42;15.35;;;;;;;2.09;100.00;100395.05;1772794;80;21721;-68
2022/02/26 01:06:45;;;;;;;26.25;14.13;;;;;;;2.13;100.00;100405.03;1772755;80;21065;-69
2022/02/26 01:09:12;;;;;;;26.87;13.10;;;;;;;2.14;100.00;100402.45;1773142;80;21002;-68
2022/02/26 01:11:39;;;;;;;29.85;14.68;;;;;;;2.17;100.00;100404.19;1781427;80;21530;-67
2022/02/26 01:14:06;;;;;;;22.55;12.58;;;;;;;2.18;100.00;100406.77;1781335;80;21037;-68
2022/02/26 01:16:34;;;;;;;25.08;12.43;;;;;;;2.21;100.00;100410.69;1781470;80;21100;-68
2022/02/26 01:19:01;;;;;;;20.75;10.95;;;;;;;2.25;100.00;100413.70;1781575;80;21033;-68
2022/02/26 01:21:28;;;;;;;19.82;10.53;;;;;;;2.26;100.00;100407.66;1781381;79;21064;-67
2022/02/26 01:23:54;;;;;;;20.05;10.23;;;;;;;2.26;100.00;100407.66;1781491;80;21207;-67
2022/02/26 01:26:21;;;;;;;18.25;10.35;;;;;;;2.26;100.00;100418.05;1781547;80;21052;-67
2022/02/26 01:28:48;;;;;;;20.23;10.25;;;;;;;2.26;100.00;100418.05;1781355;79;21124;-67
2022/02/26 01:31:15;;;;;;;19.12;10.45;;;;;;;2.29;100.00;100421.94;1781533;80;21065;-67
2022/02/26 01:33:41;;;;;;;16.75;8.90;;;;;;;2.30;100.00;100424.99;1781589;79;21049;-68
2022/02/26 01:36:08;;;;;;;16.67;8.65;;;;;;;2.31;100.00;100425.41;1781495;79;21517;-68
2022/02/26 01:38:35;;;;;;;19.35;9.55;;;;;;;2.33;100.00;100427.16;1781626;80;21332;-68
2022/02/26 01:41:03;;;;;;;14.30;7.72;;;;;;;2.34;100.00;100428.45;1781300;79;21061;-67
2022/02/26 01:43:31;;;;;;;15.58;8.48;;;;;;;2.34;100.00;100424.98;1781622;80;21537;-68
2022/02/26 01:45:58;;;;;;;12.47;7.10;;;;;;;2.35;100.00;100428.90;1781732;80;21037;-68
2022/02/26 01:48:25;;;;;;;12.80;7.40;;;;;;;2.35;100.00;100428.90;1781564;80;21791;-68
2022/02/26 01:50:52;;;;;;;14.43;6.92;;;;;;;2.35;100.00;100428.00;1781356;80;21088;-67
2022/02/26 01:53:19;;;;;;;12.00;6.75;;;;;;;2.33;100.00;100428.47;1782074;80;21064;-68
2022/02/26 01:55:46;;;;;;;12.90;6.70;;;;;;;2.35;100.00;100442.30;1753465;80;21084;-67
2022/02/26 01:58:14;;;;;;;11.50;6.67;;;;;;;2.35;100.00;100435.80;1781396;80;21112;-67
2022/02/26 02:00:41;;;;;;;11.60;6.62;;;;;;;2.34;100.00;100441.44;1781520;80;21495;-68
2022/02/26 02:03:07;;;;;;;11.63;6.80;;;;;;;2.34;100.00;100444.48;1781270;80;21585;-68
2022/02/26 02:05:34;;;;;;;9.15;5.67;;;;;;;2.35;100.00;100456.59;1781302;80;21104;-69
2022/02/26 02:08:01;;;;;;;13.25;6.58;;;;;;;2.35;100.00;100456.59;1781409;80;21001;-68
2022/02/26 02:10:28;;;;;;;9.33;5.95;;;;;;;2.35;100.00;100450.09;1730189;80;21144;-67
2022/02/26 02:12:55;;;;;;;8.83;5.97;;;;;;;2.36;100.00;100449.25;1786346;80;21142;-67
2022/02/26 02:15:39;;;;;;;8.98;5.78;;;;;;;2.33;100.00;100451.86;1786744;80;21060;-67
2022/02/26 02:18:09;;;;;;;11.70;5.97;;;;;;;2.34;100.00;100460.94;1786791;80;21091;-69
2022/02/26 02:20:36;;;;;;;10.40;6.03;;;;;;;2.34;100.00;100460.08;1786611;80;21271;-68
2022/02/26 02:23:02;;;;;;;12.33;6.25;;;;;;;2.34;100.00;100460.08;1787284;80;21072;-68
2022/02/26 02:25:31;;;;;;;8.28;5.67;;;;;;;2.34;100.00;100462.67;1786687;80;21915;-67
2022/02/26 02:27:59;;;;;;;10.55;5.95;;;;;;;2.35;100.00;100476.09;1786973;80;21014;-68
2022/02/26 02:30:27;;;;;;;10.40;6.22;;;;;;;2.34;100.00;100478.27;1786745;80;21036;-68
2022/02/26 02:32:54;;;;;;;12.95;5.60;;;;;;;2.32;100.00;100480.86;1787136;80;21085;-67
2022/02/26 02:35:39;;;;;;;10.10;5.60;;;;;;;2.31;100.00;100479.13;1786697;80;21522;-67
2022/02/26 02:38:16;;;;;;;9.35;6.37;;;;;;;2.28;100.00;100478.70;1787067;80;21214;-67
2022/02/26 02:40:45;;;;;;;9.98;5.60;;;;;;;2.25;100.00;100479.97;1786779;80;21608;-68
2022/02/26 02:43:12;;;;;;;10.38;5.33;;;;;;;2.25;100.00;100486.47;1786845;80;21030;-67
2022/02/26 02:45:39;;;;;;;9.70;5.25;;;;;;;2.22;100.00;100483.88;1786710;80;21025;-66
2022/02/26 02:48:07;;;;;;;9.05;5.83;;;;;;;2.20;100.00;100483.43;1786924;80;21135;-66
2022/02/26 02:50:33;;;;;;;14.30;6.15;;;;;;;2.22;100.00;100485.61;1786640;80;21556;-67
2022/02/26 02:53:00;;;;;;;11.93;6.17;;;;;;;2.18;100.00;100486.45;1786728;80;21030;-68
2022/02/26 02:55:27;;;;;;;10.08;5.87;;;;;;;2.18;100.00;100486.45;1757324;80;21057;-67
2022/02/26 02:57:55;;;;;;;11.18;6.12;;;;;;;2.20;100.00;100497.72;1755432;81;21037;-67
2022/02/26 03:00:22;;;;;;;9.25;5.33;;;;;;;2.20;100.00;100498.59;1755639;81;21084;-68
2022/02/26 03:02:49;;;;;;;10.95;5.92;;;;;;;2.22;100.00;100502.06;1755777;81;21183;-67
2022/02/26 03:05:15;;;;;;;9.50;5.75;;;;;;;2.20;100.00;100497.72;1755447;81;21065;-68
2022/02/26 03:07:44;;;;;;;8.85;5.70;;;;;;;2.17;100.00;100501.19;1755719;81;21564;-68
2022/02/26 03:10:10;;;;;;;10.95;6.00;;;;;;;2.17;100.00;100501.19;1750237;81;21037;-66
2022/02/26 03:12:38;;;;;;;10.18;6.15;;;;;;;2.16;100.00;100509.83;1716703;83;21101;-67
2022/02/26 03:15:06;;;;;;;13.38;5.95;;;;;;;2.12;100.00;100514.59;1716900;82;21122;-68
2022/02/26 03:17:33;;;;;;;10.60;6.15;;;;;;;2.12;100.00;100514.59;1716667;83;21058;-67
2022/02/26 03:20:01;;;;;;;10.30;6.30;;;;;;;2.12;100.00;100523.69;1716716;82;21063;-67
2022/02/26 03:22:28;;;;;;;9.40;5.75;;;;;;;2.11;100.00;100523.23;1716924;83;21628;-67
2022/02/26 03:24:57;;;;;;;11.33;6.72;;;;;;;2.09;100.00;100521.95;1716853;83;21609;-67
2022/02/26 03:27:23;;;;;;;9.23;6.17;;;;;;;2.08;100.00;100524.09;1716646;83;21680;-68
2022/02/26 03:29:50;;;;;;;11.03;6.00;;;;;;;2.07;100.00;100528.87;1717108;83;21057;-68
2022/02/26 03:32:17;;;;;;;12.00;6.42;;;;;;;2.05;100.00;100528.00;1716857;83;21340;-67
2022/02/26 03:34:45;;;;;;;10.15;6.53;;;;;;;2.04;100.00;100531.87;1717027;83;21049;-68
2022/02/26 03:37:12;;;;;;;9.35;6.37;;;;;;;2.00;100.00;100534.91;1717257;83;21033;-68
2022/02/26 03:39:38;;;;;;;11.78;6.78;;;;;;;1.99;100.00;100534.89;1717298;83;21569;-68
2022/02/26 03:42:07;;;;;;;10.13;6.40;;;;;;;1.95;100.00;100543.52;1716876;83;21086;-68
2022/02/26 03:44:34;;;;;;;9.30;6.33;;;;;;;1.88;100.00;100547.81;1717105;82;21054;-67
2022/02/26 03:47:01;;;;;;;11.95;6.70;;;;;;;1.82;100.00;100555.59;1716604;82;21120;-67
2022/02/26 03:49:28;;;;;;;13.10;6.65;;;;;;;1.73;100.00;100556.41;1716891;83;21145;-67
2022/02/26 03:51:56;;;;;;;10.88;6.10;;;;;;;1.65;100.00;100555.48;1716945;83;21241;-67
2022/02/26 03:54:23;;;;;;;13.75;7.05;;;;;;;1.60;100.00;100559.78;1743663;81;21040;-67
2022/02/26 03:56:50;;;;;;;10.72;6.00;;;;;;;1.53;100.00;100563.20;1770847;81;21564;-66
2022/02/26 03:59:16;;;;;;;12.85;7.72;;;;;;;1.46;100.00;100567.48;1770852;80;21084;-66
2022/02/26 04:01:44;;;;;;;12.63;7.47;;;;;;;1.38;100.00;100572.63;1771053;81;21112;-68
2022/02/26 04:04:11;;;;;;;12.68;7.30;;;;;;;1.31;100.00;100570.84;1770999;81;21131;-68
2022/02/26 04:06:37;;;;;;;13.85;7.55;;;;;;;1.25;100.00;100574.23;1771285;81;21049;-68
2022/02/26 04:09:05;;;;;;;15.55;7.70;;;;;;;1.22;100.00;100581.11;1771034;80;21104;-69
2022/02/26 04:11:32;;;;;;;13.22;7.47;;;;;;;1.18;100.00;100584.56;1785548;79;21499;-68
2022/02/26 04:13:59;;;;;;;13.38;8.58;;;;;;;1.13;100.00;100590.11;1797373;79;21041;-68
2022/02/26 04:16:26;;;;;;;15.25;7.65;;;;;;;1.08;100.00;100600.88;1797277;79;21131;-68
2022/02/26 04:18:53;;;;;;;14.03;7.78;;;;;;;1.01;100.00;100602.55;1797190;79;21042;-69
2022/02/26 04:21:20;;;;;;;15.53;7.72;;;;;;;0.94;100.00;100610.69;1716902;83;21543;-68
2022/02/26 04:23:47;;;;;;;14.40;8.35;;;;;;;0.88;100.00;100608.06;1797415;79;21082;-67
2022/02/26 04:26:15;;;;;;;16.40;7.75;;;;;;;0.81;100.00;100610.16;1797188;79;21038;-67
2022/02/26 04:28:42;;;;;;;20.92;8.75;;;;;;;0.77;100.00;100621.34;1797072;79;21589;-68
2022/02/26 04:31:09;;;;;;;16.73;9.05;;;;;;;0.71;100.00;100614.78;1797137;79;21038;-69
2022/02/26 04:33:37;;;;;;;16.35;9.13;;;;;;;0.67;100.00;100624.66;1797280;79;21082;-68
2022/02/26 04:36:04;;;;;;;14.75;9.05;;;;;;;0.61;100.00;100632.83;1797455;79;21546;-67
2022/02/26 04:38:35;;;;;;;18.12;9.03;;;;;;;0.56;100.00;100646.16;1797405;79;21061;-67
2022/02/26 04:41:01;;;;;;;17.85;10.03;;;;;;;0.51;100.00;100642.66;1797100;79;21593;-69
2022/02/26 04:43:29;;;;;;;15.68;9.05;;;;;;;0.48;100.00;100645.19;1716753;83;21076;-69
2022/02/26 04:45:55;;;;;;;19.17;10.23;;;;;;;0.42;100.00;100647.72;1797191;79;21526;-67
2022/02/26 04:48:22;;;;;;;18.32;9.85;;;;;;;0.39;100.00;100650.25;1797553;79;21066;-69
2022/02/26 04:50:48;;;;;;;18.40;9.45;;;;;;;0.36;100.00;100663.17;1716987;83;21053;-67
2022/02/26 04:53:16;;;;;;;22.40;10.82;;;;;;;0.34;100.00;100673.51;1796855;79;21296;-69
2022/02/26 04:55:43;;;;;;;20.55;9.60;;;;;;;0.36;100.00;100679.59;1781362;80;21106;-67
2022/02/26 04:58:09;;;;;;;20.62;10.43;;;;;;;0.19;100.00;100661.23;1781822;80;21058;-67
2022/02/26 05:00:37;;;;;;;18.55;10.63;;;;;;;0.36;100.00;100689.09;1780652;80;21098;-66
2022/02/26 05:03:04;;;;;;;18.30;9.20;;;;;;;0.37;100.00;100698.63;1778506;80;21058;-68
2022/02/26 05:05:31;;;;;;;18.20;10.80;;;;;;;0.38;100.00;100704.23;1778368;80;21906;-67
2022/02/26 05:07:58;;;;;;;17.45;10.38;;;;;;;0.39;100.00;100702.97;1778446;80;21574;-68
2022/02/26 05:10:25;;;;;;;21.33;11.18;;;;;;;0.42;100.00;100707.31;1778236;80;21572;-67
2022/02/26 05:12:53;;;;;;;22.75;11.55;;;;;;;0.43;100.00;100714.23;1778896;80;22187;-67
2022/02/26 05:15:19;;;;;;;21.68;10.08;;;;;;;0.46;100.00;100709.11;1778852;80;21065;-66
2022/02/26 05:17:46;;;;;;;20.75;11.22;;;;;;;0.48;100.00;100719.04;1778886;80;21949;-67
2022/02/26 05:20:14;;;;;;;20.77;10.50;;;;;;;0.51;100.00;100725.58;1778698;80;21048;-68
2022/02/26 05:22:42;;;;;;;16.12;10.15;;;;;;;0.53;100.00;100724.28;1778899;80;21053;-68
2022/02/26 05:25:10;;;;;;;20.48;10.13;;;;;;;0.54;100.00;100725.61;1778624;80;21053;-67
2022/02/26 05:27:40;;;;;;;20.23;11.10;;;;;;;0.56;100.00;100730.39;1778758;80;21049;-67
2022/02/26 05:30:08;;;;;;;17.90;10.85;;;;;;;0.55;100.00;100733.85;1778709;80;21865;-70
2022/02/26 05:32:35;;;;;;;20.50;11.08;;;;;;;0.55;100.00;100730.36;1778548;80;21073;-68
2022/02/26 05:35:01;;;;;;;20.32;11.15;;;;;;;0.56;100.00;100730.39;1779085;80;21100;-68
2022/02/26 05:37:28;;;;;;;20.27;11.35;;;;;;;0.57;100.00;100741.20;1778787;80;21042;-68
2022/02/26 05:39:54;;;;;;;17.27;10.35;;;;;;;0.55;100.00;100731.27;1778852;80;21034;-68
2022/02/26 05:42:22;;;;;;;21.23;11.25;;;;;;;0.55;100.00;100744.22;1778715;80;21529;-68
2022/02/26 05:44:48;;;;;;;19.15;10.78;;;;;;;0.55;100.00;100740.33;1778875;80;21550;-69
2022/02/26 05:47:15;;;;;;;28.67;13.75;;;;;;;0.60;100.00;100746.44;1778670;80;21037;-68
2022/02/26 05:49:41;;;;;;;25.55;11.73;;;;;;;0.59;100.00;100751.16;1778739;80;21064;-68
2022/02/26 05:52:09;;;;;;;24.05;13.15;;;;;;;0.62;100.00;100757.70;1778850;80;21029;-69
2022/02/26 05:54:36;;;;;;;24.27;11.63;;;;;;;0.65;100.00;100761.19;1778911;80;21099;-68
2022/02/26 05:57:03;;;;;;;22.75;12.80;;;;;;;0.65;100.00;100754.28;1778768;80;21065;-68
2022/02/26 05:59:31;;;;;;;27.00;13.72;;;;;;;0.71;100.00;100756.93;1778680;80;21037;-67
2022/02/26 06:01:58;;;;;;;21.57;12.47;;;;;;;0.73;100.00;100763.01;1778682;80;21041;-68
2022/02/26 06:04:24;;;;;;;24.72;13.75;;;;;;;0.78;100.00;100771.75;1779145;80;21037;-69
2022/02/26 06:06:51;;;;;;;18.82;11.20;;;;;;;0.88;100.00;100779.21;1778931;80;21181;-67
2022/02/26 06:09:18;;;;;;;24.50;13.00;;;;;;;0.96;100.00;100784.05;1778847;80;21174;-67
2022/02/26 06:11:45;;;;;;;22.45;11.53;;;;;;;1.09;100.00;100779.90;1775701;80;21043;-67
2022/02/26 06:14:11;;;;;;;25.32;13.30;;;;;;;1.22;100.00;100786.09;1770697;80;21618;-67
2022/02/26 06:16:40;;;;;;;24.30;13.32;;;;;;;1.32;100.00;100789.25;1771006;81;21551;-68
2022/02/26 06:19:06;;;;;;;22.85;12.33;;;;;;;1.50;100.00;100781.23;1771123;81;21156;-68
2022/02/26 06:21:33;;;;;;;22.02;13.10;;;;;;;1.69;100.00;100788.33;1771131;80;21098;-69
2022/02/26 06:23:59;;;;;;;21.15;11.28;;;;;;;2.05;100.00;100785.20;1771031;80;21075;-69
2022/02/26 06:26:26;;;;;;;18.40;11.75;;;;;;;2.49;100.00;100787.69;1770900;81;21266;-69
2022/02/26 06:28:55;;;;;;;18.37;10.40;;;;;;;3.22;100.00;100786.30;1771142;81;21153;-67
2022/02/26 06:31:23;;;;;;;17.40;10.60;;;;;;;4.11;100.00;100798.19;1771187;81;21951;-69
2022/02/26 06:33:50;;;;;;;20.80;11.45;;;;;;;4.90;100.00;100790.70;1771018;81;21044;-69
2022/02/26 06:36:16;;;;;;;24.07;11.35;;;;;;;5.61;100.00;100789.93;1771278;81;21115;-68
2022/02/26 06:38:42;;;;;;;15.23;9.73;;;;;;;6.34;98.57;100790.27;1771123;81;21028;-68
2022/02/26 06:41:11;;;;;;;16.75;9.40;;;;;;;6.93;95.74;100787.93;1771189;81;21063;-70
2022/02/26 06:43:39;;;;;;;12.03;8.15;;;;;;;7.71;90.51;100794.77;1771014;80;21530;-67
2022/02/26 06:46:07;;;;;;;12.25;7.83;;;;;;;8.43;82.85;100798.02;1771419;81;21516;-69
2022/02/26 06:48:33;;;;;;;12.95;7.47;;;;;;;9.05;79.95;100791.62;1771237;81;21048;-69
2022/02/26 06:51:00;;;;;;;13.15;6.78;;;;;;;9.66;73.99;100803.44;1771179;81;21058;-68
2022/02/26 06:53:26;;;;;;;11.05;7.12;;;;;;;10.03;70.41;100805.21;1772275;80;21367;-69
2022/02/26 06:55:53;;;;;;;11.80;6.87;;;;;;;10.45;62.06;100809.05;1781617;80;22066;-68
2022/02/26 06:58:20;;;;;;;11.18;6.58;;;;;;;10.81;59.08;100810.29;1781142;80;21046;-70
2022/02/26 07:00:46;;;;;;;12.23;5.78;;;;;;;11.19;55.76;100812.33;1781693;80;21038;-68
2022/02/26 07:03:13;;;;;;;10.13;6.05;;;;;;;11.60;56.21;100819.48;1771800;80;21145;-68
2022/02/26 07:05:40;;;;;;;11.55;6.08;;;;;;;11.88;52.48;100816.88;1747825;82;21157;-68
2022/02/26 07:08:06;;;;;;;18.65;7.20;;;;;;;12.17;50.79;100821.23;1747266;82;21018;-68
2022/02/26 07:10:33;;;;;;;10.40;6.37;;;;;;;12.53;49.96;100830.16;1747386;82;21094;-69
2022/02/26 07:13:05;;;;;;;12.40;7.30;;;;;;;12.86;48.99;100828.58;1765297;81;21037;-68
2022/02/26 07:15:33;;;;;;;10.48;5.95;;;;;;;13.18;47.16;100833.59;1770963;81;21045;-72
2022/02/26 07:17:59;;;;;;;9.45;6.03;;;;;;;13.42;46.13;100839.78;1770857;81;21041;-70
2022/02/26 07:20:26;;;;;;;11.03;5.08;;;;;;;13.67;44.73;100836.67;1770750;81;21201;-68
2022/02/26 07:22:53;;;;;;;11.22;5.17;;;;;;;13.86;44.70;100837.67;1770935;81;21179;-70
2022/02/26 07:26:23;;;;;;;10.08;5.28;;;;;;;14.37;42.76;100845.75;1814028;79;22525;-70
2022/02/26 07:28:50;;;;;;;8.38;4.60;;;;;;;14.76;43.08;100850.34;1787144;80;21103;-69
2022/02/26 07:31:17;;;;;;;8.80;5.35;;;;;;;15.23;39.67;100842.09;1787095;80;21813;-70
2022/02/26 07:33:44;;;;;;;9.55;5.10;;;;;;;15.44;39.56;100855.33;1787120;80;21545;-69
2022/02/26 07:36:11;;;;;;;9.85;5.62;;;;;;;15.52;39.85;100847.85;1782154;80;21663;-70
2022/02/26 07:38:38;;;;;;;6.87;4.92;;;;;;;15.87;39.82;100852.00;1787232;80;21016;-69
2022/02/26 07:41:06;;;;;;;7.85;4.50;;;;;;;16.07;37.73;100857.23;1787175;80;21060;-69
2022/02/26 07:43:34;;;;;;;8.53;5.20;;;;;;;16.13;35.98;100854.28;1787359;80;21129;-70
2022/02/26 07:46:04;;;;;;;8.25;4.62;;;;;;;16.10;37.13;100851.78;1787483;80;21006;-71
2022/02/26 07:48:31;;;;;;;13.83;5.08;;;;;;;16.24;35.78;100853.77;1787444;80;21041;-70
2022/02/26 07:50:58;;;;;;;7.37;4.60;;;;;;;16.41;36.42;100851.59;1787265;80;21059;-69
2022/02/26 07:53:26;;;;;;;7.67;4.33;;;;;;;16.57;35.10;100855.20;1786919;80;21022;-69
2022/02/26 07:55:53;;;;;;;5.97;3.62;;;;;;;16.57;34.79;100853.02;1787359;80;21159;-70
2022/02/26 07:58:21;;;;;;;9.68;4.40;;;;;;;16.85;34.86;100858.30;1756479;80;21018;-69
2022/02/26 08:00:48;;;;;;;6.12;3.70;;;;;;;17.18;33.40;100861.86;1787481;80;21043;-69
2022/02/26 08:03:15;;;;;;;6.55;3.45;;;;;;;17.49;32.69;100851.37;1787224;80;21300;-70
2022/02/26 08:05:42;;;;;;;6.83;3.27;;;;;;;17.43;31.10;100861.86;1787504;80;21050;-69
2022/02/26 08:08:08;;;;;;;5.20;3.20;;;;;;;17.09;31.44;100863.68;1787291;80;21840;-70
2022/02/26 08:10:37;;;;;;;6.62;3.05;;;;;;;17.25;31.83;100858.86;1787176;80;21051;-70
2022/02/26 08:13:03;;;;;;;8.93;3.00;;;;;;;17.49;31.76;100870.01;1787388;80;21062;-70
2022/02/26 08:15:31;;;;;;;5.10;3.10;;;;;;;17.67;30.40;100862.34;1787321;80;21003;-69
2022/02/26 08:17:59;;;;;;;11.43;4.28;;;;;;;17.33;29.73;100875.30;1787471;79;21086;-68
2022/02/26 08:20:26;;;;;;;9.05;3.20;;;;;;;16.88;30.48;100874.94;1809424;79;21092;-70
2022/02/26 08:22:54;;;;;;;5.15;2.85;;;;;;;16.93;31.37;100875.59;1808702;79;21093;-69
2022/02/26 08:25:20;;;;;;;5.37;2.85;;;;;;;17.30;31.87;100876.32;1801687;79;21042;-70
2022/02/26 08:27:47;;;;;;;5.12;3.17;;;;;;;17.80;29.84;100871.36;1724381;83;21020;-72
2022/02/26 08:30:17;;;;;;;6.10;2.80;;;;;;;18.18;30.52;100868.88;1724298;83;21114;-70
2022/02/26 08:32:44;;;;;;;4.90;2.52;;;;;;;18.47;29.26;100867.17;1724419;82;21145;-69
2022/02/26 08:35:11;;;;;;;5.75;2.55;;;;;;;18.76;28.40;100868.61;1705784;83;21104;-69
2022/02/26 08:37:39;;;;;;;5.60;2.65;;;;;;;18.77;28.63;100862.34;1723955;83;21018;-70
2022/02/26 08:40:08;;;;;;;6.00;2.60;;;;;;;18.80;27.66;100861.70;1723634;83;21098;-70
2022/02/26 08:42:35;;;;;;;6.65;2.50;;;;;;;18.81;27.82;100863.89;1794376;80;21117;-69
2022/02/26 08:45:04;;;;;;;11.70;2.52;;;;;;;18.91;28.05;100871.74;1794357;80;21583;-69
2022/02/26 08:47:31;;;;;;;9.13;2.45;;;;;;;19.30;27.36;100867.56;1794633;79;21003;-70
2022/02/26 08:50:01;;;;;;;5.17;2.45;;;;;;;19.43;26.38;100863.19;1723796;83;21093;-69
2022/02/26 08:52:27;;;;;;;12.23;3.42;;;;;;;19.25;26.96;100872.34;1794153;80;21031;-69
2022/02/26 08:54:54;;;;;;;5.67;2.27;;;;;;;19.48;26.81;100870.91;1757469;80;21606;-70
2022/02/26 08:57:21;;;;;;;4.05;1.85;;;;;;;19.45;26.48;100863.95;1742729;82;21654;-69
2022/02/26 08:59:48;;;;;;;4.05;2.15;;;;;;;19.28;26.18;100872.17;1742333;81;21052;-70
2022/02/26 09:02:15;;;;;;;5.90;2.10;;;;;;;19.30;26.17;100862.23;1742553;82;21125;-69
2022/02/26 09:04:41;;;;;;;3.70;1.80;;;;;;;19.36;26.59;100861.86;1742532;80;21055;-69
2022/02/26 09:07:08;;;;;;;3.80;1.60;;;;;;;19.35;25.17;100866.83;1742549;81;21392;-69
2022/02/26 09:09:36;;;;;;;3.22;1.55;;;;;;;19.40;24.44;100866.55;1742388;81;21076;-70
2022/02/26 09:12:05;;;;;;;4.97;1.65;;;;;;;19.09;24.45;100871.08;1742855;82;21134;-69
2022/02/26 09:14:33;;;;;;;3.60;1.98;;;;;;;18.68;24.97;100869.53;1742465;81;21575;-69
2022/02/26 09:17:02;;;;;;;8.40;2.60;;;;;;;18.53;25.96;100869.97;1742805;81;21035;-69
2022/02/26 09:19:30;;;;;;;3.83;1.40;;;;;;;18.57;24.69;100873.70;1742626;82;21592;-69
2022/02/26 09:21:56;;;;;;;2.58;1.52;;;;;;;18.54;22.85;100871.23;1742568;82;21111;-68
2022/02/26 09:24:23;;;;;;;4.87;1.10;;;;;;;18.48;24.32;100876.91;1742629;82;21083;-69
2022/02/26 09:26:50;;;;;;;1.80;0.93;;;;;;;18.85;24.24;100869.44;1745041;81;21047;-68
2022/02/26 09:29:16;;;;;;;4.53;1.70;;;;;;;19.10;23.14;100866.63;1745466;82;21540;-68
2022/02/26 09:31:43;;;;;;;3.40;1.30;;;;;;;19.34;23.21;100870.92;1750217;81;21080;-69
2022/02/26 09:34:10;;;;;;;3.30;1.25;;;;;;;19.69;21.89;100864.72;1752774;81;22124;-70
2022/02/26 09:36:36;;;;;;;6.40;1.30;;;;;;;19.63;23.31;100877.13;1752409;81;21085;-69
2022/02/26 09:39:03;;;;;;;5.00;1.25;;;;;;;19.61;22.36;100871.02;1752794;81;21037;-70
2022/02/26 09:41:31;;;;;;;3.77;1.27;;;;;;;19.36;23.47;100872.55;1752734;81;21069;-67
2022/02/26 09:43:58;;;;;;;4.50;1.20;;;;;;;18.76;22.14;100877.95;1752826;81;21049;-69
2022/02/26 09:46:25;;;;;;;3.85;1.12;;;;;;;17.84;23.86;100877.90;1698385;81;22167;-69
2022/02/26 09:48:52;;;;;;;2.52;1.20;;;;;;;16.81;24.17;100898.80;1752840;81;21084;-69
2022/02/26 09:51:18;;;;;;;4.67;1.30;;;;;;;16.43;24.91;100889.60;1752662;81;21014;-70
2022/02/26 09:53:46;;;;;;;2.58;1.05;;;;;;;16.42;25.09;100893.18;1745747;81;21585;-69
2022/02/26 09:56:12;;;;;;;2.50;1.20;;;;;;;16.43;24.85;100900.23;1722838;83;21548;-68
2022/02/26 09:58:39;;;;;;;3.37;1.60;;;;;;;16.65;24.25;100889.85;1722703;83;21265;-70
2022/02/26 10:01:07;;;;;;;3.80;1.60;;;;;;;16.21;25.06;100902.21;1722572;83;21166;-71
2022/02/26 10:03:36;;;;;;;7.50;1.30;;;;;;;16.26;26.12;100902.84;1722685;83;21083;-68
2022/02/26 10:06:13;;;;;;;3.02;1.30;;;;;;;16.13;26.06;100900.78;1722632;83;21112;-69
2022/02/26 10:08:51;;;;;;;3.52;1.40;;;;;;;15.98;25.64;100904.16;1722522;83;21056;-68
2022/02/26 10:11:31;;;;;;;4.12;1.40;;;;;;;16.10;25.80;100900.94;1722459;83;21558;-69
2022/02/26 10:14:11;;;;;;;4.83;1.87;;;;;;;16.46;26.32;100908.05;1722769;83;21105;-70
2022/02/26 10:16:52;;;;;;;4.12;1.70;;;;;;;16.77;25.49;100911.83;1722690;83;21577;-69
2022/02/26 10:19:31;;;;;;;3.40;1.10;;;;;;;16.68;24.92;100918.94;1722912;83;21130;-69
2022/02/26 10:22:02;;;;;;;7.30;1.25;;;;;;;16.47;25.02;100913.78;1722714;83;21088;-68
2022/02/26 10:24:30;;;;;;;2.10;0.90;;;;;;;16.54;25.02;100915.20;1722686;83;21255;-68
2022/02/26 10:27:08;;;;;;;2.33;1.30;;;;;;;16.71;24.82;100907.70;1730261;82;21445;-69
2022/02/26 10:29:36;;;;;;;5.12;1.40;;;;;;;17.10;25.36;100908.44;1694018;84;21096;-68
2022/02/26 10:32:04;;;;;;;2.95;1.20;;;;;;;17.78;23.94;100909.23;1682571;85;21039;-68
2022/02/26 10:34:40;;;;;;;2.25;1.42;;;;;;;17.73;23.41;100913.08;1682335;85;21126;-69
2022/02/26 10:37:11;;;;;;;1.90;1.00;;;;;;;17.40;24.28;100922.80;1682098;85;21545;-69
2022/02/26 10:39:47;;;;;;;2.98;1.10;;;;;;;17.49;23.40;100918.79;1682683;85;21068;-70
2022/02/26 10:42:29;;;;;;;2.02;1.25;;;;;;;17.33;24.51;100913.42;1682489;85;21151;-70
2022/02/26 10:45:14;;;;;;;1.92;0.90;;;;;;;17.33;23.29;100921.41;1682373;85;21614;-69
2022/02/26 10:47:43;;;;;;;3.50;1.20;;;;;;;17.08;22.69;100905.00;1682594;85;21628;-69
2022/02/26 10:50:22;;;;;;;2.05;1.07;;;;;;;17.15;23.25;100923.70;1682228;85;21123;-70
2022/02/26 10:52:59;;;;;;;3.70;1.40;;;;;;;17.16;23.49;100911.66;1682644;84;21102;-69
2022/02/26 10:55:53;;;;;;;2.20;1.00;;;;;;;17.57;22.77;100933.02;1709211;83;21075;-69
2022/02/26 10:58:25;;;;;;;1.98;1.00;;;;;;;17.65;23.61;100912.17;1711101;83;21232;-69
2022/02/26 11:00:54;;;;;;;2.40;1.17;;;;;;;17.18;23.58;100924.86;1681855;83;21102;-69
2022/02/26 11:03:21;;;;;;;2.60;1.10;;;;;;;16.82;23.27;100923.16;1711146;83;22042;-69
2022/02/26 11:05:48;;;;;;;4.75;1.30;;;;;;;16.29;24.98;100913.34;1710914;83;21103;-69
2022/02/26 11:08:16;;;;;;;8.15;1.52;;;;;;;15.95;24.35;100908.30;1710999;83;21087;-69
2022/02/26 11:10:45;;;;;;;7.42;1.60;;;;;;;15.53;26.35;100921.27;1706278;83;21048;-69
2022/02/26 11:13:13;;;;;;;4.03;1.67;;;;;;;15.07;27.14;100917.98;1711257;83;21070;-69
2022/02/26 11:15:41;;;;;;;2.50;1.35;;;;;;;14.79;27.14;100924.47;1706453;83;21154;-68
2022/02/26 11:18:08;;;;;;;4.10;1.50;;;;;;;14.72;28.35;100940.20;1711409;83;21150;-70
2022/02/26 11:20:35;;;;;;;3.35;1.60;;;;;;;14.87;27.50;100939.58;1706274;83;21626;-68
2022/02/26 11:23:03;;;;;;;8.35;1.47;;;;;;;14.74;26.88;100936.17;1711148;83;21107;-68
2022/02/26 11:25:30;;;;;;;4.35;1.15;;;;;;;14.80;27.23;100932.80;1711002;83;21071;-68